createdAt,value
2023-04-16T00:00:08.910Z,4.20
2023-04-16T00:05:12.475Z,4.07
2023-04-16T00:10:17.664Z,4.25
2023-04-16T00:15:22.935Z,4.20
2023-04-16T00:20:26.405Z,4.03
2023-04-16T00:25:31.511Z,4.70
2023-04-16T00:30:35.384Z,5.35
2023-04-16T00:35:39.373Z,4.53
2023-04-16T00:40:44.575Z,4.25
2023-04-16T00:45:48.473Z,4.97
2023-04-16T00:50:52.030Z,4.55
2023-04-16T00:55:58.395Z,4.85
2023-04-16T01:01:02.234Z,5.70
2023-04-16T01:06:07.538Z,4.90
2023-04-16T01:11:13.257Z,4.65
2023-04-16T01:16:16.997Z,4.72
2023-04-16T01:21:22.074Z,4.82
2023-04-16T01:31:28.787Z,6.47
2023-04-16T01:36:34.015Z,6.32
2023-04-16T01:41:37.523Z,6.25
2023-04-16T01:46:41.313Z,6.30
2023-04-16T01:51:46.166Z,7.20
2023-04-16T01:56:49.710Z,6.20
2023-04-16T02:01:53.236Z,6.35
2023-04-16T02:06:58.109Z,6.00
2023-04-16T02:12:02.289Z,6.30
2023-04-16T02:17:06.366Z,6.00
2023-04-16T02:22:11.334Z,5.68
2023-04-16T02:32:18.519Z,5.15
2023-04-16T02:37:23.448Z,5.72
2023-04-16T02:42:27.012Z,4.93
2023-04-16T02:47:30.738Z,4.90
2023-04-16T02:52:35.874Z,5.28
2023-04-16T02:57:39.465Z,5.32
2023-04-16T03:02:43.091Z,5.63
2023-04-16T03:07:47.968Z,5.57
2023-04-16T03:12:51.521Z,5.70
2023-04-16T03:17:55.218Z,5.57
2023-04-16T03:23:00.478Z,5.85
2023-04-16T03:28:04.238Z,6.35
2023-04-16T03:33:07.957Z,5.90
2023-04-16T03:38:12.855Z,5.93
2023-04-16T03:48:19.716Z,6.70
2023-04-16T03:53:24.593Z,6.25
2023-04-16T03:58:28.099Z,6.55
2023-04-16T04:03:31.676Z,6.70
2023-04-16T04:08:37.126Z,6.32
2023-04-16T04:13:40.890Z,6.57
2023-04-16T04:18:44.668Z,6.35
2023-04-16T04:23:49.612Z,6.68
2023-04-16T04:33:56.257Z,6.72
2023-04-16T04:39:01.219Z,6.75
2023-04-16T04:44:04.995Z,6.30
2023-04-16T04:49:08.867Z,6.95
2023-04-16T04:54:13.980Z,7.23
2023-04-16T05:04:20.792Z,6.43
2023-04-16T05:09:25.980Z,7.07
2023-04-16T05:14:29.470Z,6.65
2023-04-16T05:19:32.931Z,6.60
2023-04-16T05:24:37.814Z,7.13
2023-04-16T05:29:41.524Z,6.97
2023-04-16T05:34:44.994Z,7.20
2023-04-16T05:39:50.232Z,7.05
2023-04-16T05:44:53.934Z,6.10
2023-04-16T05:49:57.454Z,6.17
2023-04-16T05:55:02.368Z,6.60
2023-04-16T06:00:08.908Z,6.07
2023-04-16T06:05:12.471Z,5.93
2023-04-16T06:10:17.707Z,6.20
2023-04-16T06:15:21.444Z,5.30
2023-04-16T06:25:29.537Z,4.80
2023-04-16T06:30:33.054Z,4.85
2023-04-16T06:40:41.263Z,4.63
2023-04-16T06:45:44.765Z,4.65
2023-04-16T06:50:48.325Z,4.20
2023-04-16T07:00:56.438Z,5.13
2023-04-16T07:05:59.935Z,4.20
2023-04-16T07:11:04.843Z,4.30
2023-04-16T07:16:08.660Z,4.45
2023-04-16T07:31:22.219Z,3.83
2023-04-16T07:36:27.902Z,3.90
2023-04-16T07:41:32.844Z,4.32
2023-04-16T07:46:46.345Z,4.20
2023-04-16T07:51:51.221Z,4.35
2023-04-16T07:56:56.471Z,5.07
2023-04-16T08:02:00.274Z,4.90
2023-04-16T08:07:04.035Z,4.28
2023-04-16T08:12:09.085Z,4.93
2023-04-16T08:17:12.626Z,4.25
2023-04-16T08:22:16.813Z,4.53
2023-04-16T08:27:21.748Z,4.07
2023-04-16T08:32:26.105Z,4.50
2023-04-16T08:37:29.897Z,4.40
2023-04-16T08:42:42.254Z,4.25
2023-04-16T08:47:48.796Z,3.88
2023-04-16T08:52:54.296Z,3.83
2023-04-16T08:58:00.907Z,3.90
2023-04-16T09:03:05.806Z,4.20
2023-04-16T09:08:09.901Z,4.28
2023-04-16T09:13:17.069Z,3.53
2023-04-16T09:18:21.838Z,4.13
2023-04-16T09:28:45.782Z,3.37
2023-04-16T09:34:03.487Z,3.78
2023-04-16T09:39:07.574Z,3.38
2023-04-16T09:44:12.836Z,3.60
2023-04-16T09:49:18.755Z,3.97
2023-04-16T09:54:22.495Z,3.58
2023-04-16T09:59:34.023Z,3.80
2023-04-16T10:04:48.010Z,3.75
2023-04-16T10:09:52.761Z,4.10
2023-04-16T10:20:03.020Z,4.03
2023-04-16T10:25:09.097Z,3.50
2023-04-16T10:30:17.009Z,3.55
2023-04-16T10:35:21.661Z,3.10
2023-04-16T10:40:26.652Z,3.42
2023-04-16T10:45:39.339Z,3.20
2023-04-16T10:50:42.841Z,3.60
2023-04-16T10:56:12.366Z,3.53
2023-04-16T11:01:17.537Z,4.00
2023-04-16T11:06:27.112Z,3.35
2023-04-16T11:11:39.535Z,3.10
2023-04-16T11:16:44.536Z,3.45
2023-04-16T11:21:48.117Z,3.60
2023-04-16T11:26:53.302Z,3.53
2023-04-16T11:31:58.469Z,3.42
2023-04-16T11:37:01.987Z,3.45
2023-04-16T11:42:05.784Z,3.33
2023-04-16T11:47:13.932Z,3.00
2023-04-16T11:52:27.746Z,3.17
2023-04-16T11:57:32.638Z,3.42
2023-04-16T12:07:47.569Z,3.33
2023-04-16T12:12:51.346Z,4.00
2023-04-16T12:18:08.599Z,3.80
2023-04-16T12:23:14.073Z,3.35
2023-04-16T12:28:29.079Z,3.70
2023-04-16T12:38:37.199Z,3.40
2023-04-16T12:43:40.782Z,3.38
2023-04-16T12:48:46.266Z,3.50
2023-04-16T12:53:50.203Z,3.15
2023-04-16T12:58:53.836Z,3.60
2023-04-16T13:03:58.935Z,3.58
2023-04-16T13:09:02.583Z,3.88
2023-04-16T13:14:06.569Z,3.60
2023-04-16T13:19:11.890Z,3.30
2023-04-16T13:24:15.612Z,3.45
2023-04-16T13:29:19.084Z,3.20
2023-04-16T13:34:24.302Z,3.28
2023-04-16T13:39:27.894Z,3.40
2023-04-16T13:44:31.667Z,3.80
2023-04-16T13:49:36.735Z,3.40
2023-04-16T13:54:40.679Z,4.13
2023-04-16T13:59:44.192Z,3.67
2023-04-16T14:04:49.090Z,4.07
2023-04-16T14:09:52.547Z,3.85
2023-04-16T14:14:56.158Z,3.78
2023-04-16T14:20:01.056Z,4.20
2023-04-16T14:25:05.379Z,4.60
2023-04-16T14:30:09.834Z,5.57
2023-04-16T14:35:14.980Z,4.93
2023-04-16T14:40:18.453Z,5.35
2023-04-16T14:45:22.214Z,5.10
2023-04-16T14:50:27.230Z,5.57
2023-04-16T14:55:30.931Z,4.50
2023-04-16T15:00:36.058Z,4.38
2023-04-16T15:05:41.392Z,4.80
2023-04-16T15:10:45.975Z,4.20
2023-04-16T15:15:49.663Z,4.93
2023-04-16T15:20:55.952Z,4.22
2023-04-16T15:25:59.920Z,4.80
2023-04-16T15:31:03.505Z,4.87
2023-04-16T15:36:08.953Z,5.97
2023-04-16T15:41:12.563Z,4.72
2023-04-16T15:46:16.505Z,4.40
2023-04-16T15:51:21.850Z,4.05
2023-04-16T15:56:25.499Z,4.35
2023-04-16T16:01:28.967Z,4.28
2023-04-16T16:06:33.949Z,4.32
2023-04-16T16:11:38.548Z,4.60
2023-04-16T16:16:42.382Z,4.30
2023-04-16T16:21:47.549Z,4.65
2023-04-16T16:26:51.216Z,4.90
2023-04-16T16:31:54.876Z,5.35
2023-04-16T16:36:59.922Z,5.30
2023-04-16T16:42:03.496Z,4.40
2023-04-16T16:47:07.137Z,4.88
2023-04-16T16:52:12.154Z,4.53
2023-04-16T16:57:15.767Z,4.88
2023-04-16T17:02:19.763Z,5.03
2023-04-16T17:07:24.792Z,5.33
2023-04-16T17:12:28.560Z,4.95
2023-04-16T17:17:32.840Z,4.95
2023-04-16T17:22:38.810Z,5.13
2023-04-16T17:27:42.616Z,5.00
2023-04-16T17:32:46.322Z,5.53
2023-04-16T17:37:51.201Z,6.60
2023-04-16T17:47:57.908Z,11.82
2023-04-16T17:53:03.781Z,9.05
2023-04-16T17:58:07.548Z,6.80
2023-04-16T18:03:11.707Z,5.88
2023-04-16T18:08:16.864Z,6.60
2023-04-16T18:13:20.598Z,8.20
2023-04-16T18:18:24.093Z,7.35
2023-04-16T18:23:28.994Z,6.25
2023-04-16T18:33:53.957Z,7.70
2023-04-16T18:39:02.651Z,7.00
2023-04-16T18:44:06.918Z,7.18
2023-04-16T18:49:10.838Z,7.45
2023-04-16T18:54:16.774Z,6.53
2023-04-16T18:59:20.367Z,7.07
2023-04-16T19:04:24.101Z,7.75
2023-04-16T19:09:29.098Z,6.68
2023-04-16T19:19:36.059Z,7.18
2023-04-16T19:24:40.988Z,7.53
2023-04-16T19:34:49.006Z,7.35
2023-04-16T19:39:54.922Z,7.60
2023-04-16T19:44:58.513Z,7.88
2023-04-16T19:50:02.355Z,7.28
2023-04-16T19:55:10.124Z,8.05
2023-04-16T20:00:14.649Z,6.82
2023-04-16T20:05:18.568Z,7.38
2023-04-16T20:10:23.502Z,7.75
2023-04-16T20:15:27.410Z,6.93
2023-04-16T20:20:30.912Z,7.07
2023-04-16T20:25:35.828Z,7.32
2023-04-16T20:35:43.741Z,7.88
2023-04-16T20:40:48.599Z,6.93
2023-04-16T20:45:52.498Z,7.25
2023-04-16T20:50:59.735Z,9.13
2023-04-16T20:56:04.726Z,8.30
2023-04-16T21:01:08.560Z,7.38
2023-04-16T21:06:14.576Z,7.93
2023-04-16T21:11:19.701Z,7.85
2023-04-16T21:16:23.392Z,8.38
2023-04-16T21:21:27.652Z,7.85
2023-04-16T21:26:32.620Z,8.40
2023-04-16T21:36:39.330Z,8.57
2023-04-16T21:41:44.239Z,8.52
2023-04-16T21:51:59.320Z,8.85
2023-04-16T21:57:04.617Z,8.93
2023-04-16T22:02:08.218Z,9.50
2023-04-16T22:07:11.938Z,8.98
2023-04-16T22:12:17.192Z,8.60
2023-04-16T22:22:24.691Z,9.23
2023-04-16T22:27:29.539Z,8.60
2023-04-16T22:32:33.370Z,8.43
2023-04-16T22:37:37.096Z,9.30
2023-04-16T22:42:42.103Z,8.40
2023-04-16T22:52:49.198Z,8.73
2023-04-16T22:57:54.307Z,9.43
2023-04-16T23:02:58.009Z,9.40
2023-04-16T23:08:01.579Z,8.52
2023-04-16T23:13:06.668Z,9.82
2023-04-16T23:23:13.370Z,8.57
2023-04-16T23:28:18.451Z,9.32
2023-04-16T23:33:22.472Z,9.27
2023-04-16T23:38:25.950Z,9.55
2023-04-16T23:43:31.009Z,7.88
2023-04-16T23:53:37.733Z,10.23
2023-04-16T23:58:42.648Z,11.63
